Airfield :
LOGIN :

Register | Disclaimer

   EN    FR    IT 

 










Legend :    VFR   Marginal VFR   IFR   Intensive IFR   Very Intensive IFR
Visi :
Ceiling :
>= 8 km
>= 3000ft
5 to 8 km
1000 to 3000 ft
1500m to 5 km
500 to 1000 ft
800 to 1500m
200 to 500 ft
< 800m
< 200 ft
Symbols :   Thunderstorms  Fog  Heavy snow  Heavy precipitations  Wind > 20 kt
SIGMETs :     Misc.  Thunderstorms  Icing  Turbulence  Mountain Waves  Volcanic Ashes






- Airport Elevation : 124 ft
- IATA code : RNS


LFRN - Rennes

CURRENT METAR :
  • 152330Z AUTO 17012KT 4100 -RA BR BKN007/// OVC012/// ///CB 14/13 Q1008 TEMPO RA BKN007 BECMG 20017G30KT

EXPIRED METARs :
  • 152300Z AUTO 16012KT 5000 -RA BR BKN009/// OVC018/// ///TCU 14/13 Q1008 TEMPO RA BKN007 BECMG 20017G30KT
  • 152230Z AUTO 16009KT 9000 4400 -RA SCT014/// BKN027/// BKN040/// ///TCU 14/13 Q1009 TEMPO 3000 RA BKN007 BECMG 20017G30KT
  • 152200Z AUTO 19007KT 150V210 9999 -RA BKN009/// BKN014/// BKN020/// ///TCU 14/13 Q1009 TEMPO BKN012 BECMG RA
  • 152130Z AUTO 16008KT 6000 -RA BKN011/// BKN017/// BKN026/// ///TCU 14/13 Q1009 TEMPO BKN012 BECMG RA
  • 152100Z AUTO 17010KT 9999 -RA FEW013 BKN048 BKN054 14/12 Q1010 TEMPO BKN012 BECMG RA
  • 152030Z AUTO 17010KT 9999 -DZ FEW018 BKN066 OVC092 14/12 Q1010 TEMPO BKN012 BECMG RA

TAF TAF LFRN
Valid from the 16 at 00:00 until the 17 at 00:00 UTC


152300Z 1600/1624 20015G30KT 5000 RA BKN014
TEMPO 1600/1618 3000 RA BKN007
BECMG 1616/1618 VRB05KT
TEMPO 1616/1620 21015G25KT
BECMG 1618/1620 9999 NSW BKN020
ATIS : +33 2 99 67 72 50



MET'MAP, your aeronautical weather chart ! - Copyright ORBIFLY December 2007 - Disclaimer

ORBIFLY MET'MAP TEAM :

Programming & Development : Alexandra Zaïnal
Concept & Development : Baudouin d'Aumeries
Co-Development & Prog : Marc-Olivier Méhu
Technical & hardware support : Manuel Goepfert

Contact : metmap@orbifly.com




SOURCES & CREDITS :

   NOAA